sensor_id;sensor_type;location;lat;lon;timestamp;P1;durP1;ratioP1;P2;durP2;ratioP2
7843;SDS011;3967;48.702;9.326;2023-07-22T00:00:03;2.60;;;2.13;;
7843;SDS011;3967;48.702;9.326;2023-07-22T00:02:32;3.20;;;2.67;;
7843;SDS011;3967;48.702;9.326;2023-07-22T00:04:59;2.53;;;2.33;;
7843;SDS011;3967;48.702;9.326;2023-07-22T00:07:25;3.47;;;2.37;;
7843;SDS011;3967;48.702;9.326;2023-07-22T00:09:52;3.47;;;2.10;;
7843;SDS011;3967;48.702;9.326;2023-07-22T00:12:19;2.07;;;1.83;;
7843;SDS011;3967;48.702;9.326;2023-07-22T00:14:46;2.20;;;1.80;;
7843;SDS011;3967;48.702;9.326;2023-07-22T00:17:13;2.67;;;2.00;;
7843;SDS011;3967;48.702;9.326;2023-07-22T00:19:40;2.37;;;2.17;;
7843;SDS011;3967;48.702;9.326;2023-07-22T00:22:06;3.23;;;1.80;;
7843;SDS011;3967;48.702;9.326;2023-07-22T00:24:33;3.20;;;1.90;;
7843;SDS011;3967;48.702;9.326;2023-07-22T00:27:00;4.37;;;2.20;;
7843;SDS011;3967;48.702;9.326;2023-07-22T00:29:27;2.07;;;1.97;;
7843;SDS011;3967;48.702;9.326;2023-07-22T00:31:54;3.13;;;2.00;;
7843;SDS011;3967;48.702;9.326;2023-07-22T00:34:20;2.43;;;1.87;;
7843;SDS011;3967;48.702;9.326;2023-07-22T00:36:49;2.33;;;2.13;;
7843;SDS011;3967;48.702;9.326;2023-07-22T00:39:16;1.80;;;1.67;;
7843;SDS011;3967;48.702;9.326;2023-07-22T00:41:42;2.30;;;2.10;;
7843;SDS011;3967;48.702;9.326;2023-07-22T00:44:11;3.50;;;2.47;;
7843;SDS011;3967;48.702;9.326;2023-07-22T00:46:38;2.23;;;2.07;;
7843;SDS011;3967;48.702;9.326;2023-07-22T00:49:06;3.40;;;2.10;;
7843;SDS011;3967;48.702;9.326;2023-07-22T00:51:34;4.90;;;2.57;;
7843;SDS011;3967;48.702;9.326;2023-07-22T00:54:01;2.70;;;2.50;;
7843;SDS011;3967;48.702;9.326;2023-07-22T00:56:30;2.60;;;2.13;;
7843;SDS011;3967;48.702;9.326;2023-07-22T00:58:59;9.47;;;4.60;;
7843;SDS011;3967;48.702;9.326;2023-07-22T01:01:27;2.33;;;2.10;;
7843;SDS011;3967;48.702;9.326;2023-07-22T01:03:56;3.67;;;2.30;;
7843;SDS011;3967;48.702;9.326;2023-07-22T01:06:23;2.13;;;1.83;;
7843;SDS011;3967;48.702;9.326;2023-07-22T01:08:56;1.83;;;1.73;;
7843;SDS011;3967;48.702;9.326;2023-07-22T01:11:24;2.33;;;1.80;;
7843;SDS011;3967;48.702;9.326;2023-07-22T01:13:52;2.20;;;1.70;;
7843;SDS011;3967;48.702;9.326;2023-07-22T01:16:24;2.03;;;1.90;;
7843;SDS011;3967;48.702;9.326;2023-07-22T01:18:53;4.07;;;2.10;;
7843;SDS011;3967;48.702;9.326;2023-07-22T01:21:22;1.80;;;1.60;;
7843;SDS011;3967;48.702;9.326;2023-07-22T01:23:50;2.40;;;1.70;;
7843;SDS011;3967;48.702;9.326;2023-07-22T01:26:18;3.00;;;2.07;;
7843;SDS011;3967;48.702;9.326;2023-07-22T01:28:45;2.93;;;1.70;;
7843;SDS011;3967;48.702;9.326;2023-07-22T01:31:12;4.50;;;1.80;;
7843;SDS011;3967;48.702;9.326;2023-07-22T01:33:39;2.03;;;1.83;;
7843;SDS011;3967;48.702;9.326;2023-07-22T01:36:09;2.53;;;1.93;;
7843;SDS011;3967;48.702;9.326;2023-07-22T01:38:35;2.37;;;2.00;;
7843;SDS011;3967;48.702;9.326;2023-07-22T01:41:02;1.70;;;1.60;;
7843;SDS011;3967;48.702;9.326;2023-07-22T01:43:29;2.80;;;2.17;;
7843;SDS011;3967;48.702;9.326;2023-07-22T01:45:55;2.00;;;1.80;;
7843;SDS011;3967;48.702;9.326;2023-07-22T01:48:22;3.43;;;2.30;;
7843;SDS011;3967;48.702;9.326;2023-07-22T01:50:49;2.40;;;2.20;;
7843;SDS011;3967;48.702;9.326;2023-07-22T01:53:16;2.23;;;2.03;;
7843;SDS011;3967;48.702;9.326;2023-07-22T01:55:43;2.00;;;1.70;;
7843;SDS011;3967;48.702;9.326;2023-07-22T01:58:10;4.53;;;2.83;;
7843;SDS011;3967;48.702;9.326;2023-07-22T02:00:37;2.23;;;2.03;;
7843;SDS011;3967;48.702;9.326;2023-07-22T02:03:05;3.47;;;2.70;;
7843;SDS011;3967;48.702;9.326;2023-07-22T02:05:32;3.83;;;2.50;;
7843;SDS011;3967;48.702;9.326;2023-07-22T02:07:58;2.23;;;2.10;;
7843;SDS011;3967;48.702;9.326;2023-07-22T02:10:25;3.33;;;2.60;;
7843;SDS011;3967;48.702;9.326;2023-07-22T02:12:52;2.87;;;2.63;;
7843;SDS011;3967;48.702;9.326;2023-07-22T02:15:19;3.80;;;2.73;;
7843;SDS011;3967;48.702;9.326;2023-07-22T02:17:47;4.10;;;2.50;;
7843;SDS011;3967;48.702;9.326;2023-07-22T02:20:14;3.27;;;2.60;;
7843;SDS011;3967;48.702;9.326;2023-07-22T02:22:41;4.23;;;2.27;;
7843;SDS011;3967;48.702;9.326;2023-07-22T02:25:08;2.83;;;2.40;;
7843;SDS011;3967;48.702;9.326;2023-07-22T02:27:36;3.07;;;2.80;;
7843;SDS011;3967;48.702;9.326;2023-07-22T02:30:06;2.70;;;2.50;;
7843;SDS011;3967;48.702;9.326;2023-07-22T02:32:40;6.70;;;2.40;;
7843;SDS011;3967;48.702;9.326;2023-07-22T02:35:07;3.83;;;2.30;;
7843;SDS011;3967;48.702;9.326;2023-07-22T02:37:37;2.43;;;2.13;;
7843;SDS011;3967;48.702;9.326;2023-07-22T02:40:05;2.30;;;2.20;;
7843;SDS011;3967;48.702;9.326;2023-07-22T02:42:37;2.33;;;2.13;;
7843;SDS011;3967;48.702;9.326;2023-07-22T02:45:05;3.40;;;2.30;;
7843;SDS011;3967;48.702;9.326;2023-07-22T02:47:34;2.50;;;2.30;;
7843;SDS011;3967;48.702;9.326;2023-07-22T02:50:01;3.33;;;2.20;;
7843;SDS011;3967;48.702;9.326;2023-07-22T02:52:29;2.50;;;2.30;;
7843;SDS011;3967;48.702;9.326;2023-07-22T02:55:09;3.87;;;2.50;;
7843;SDS011;3967;48.702;9.326;2023-07-22T02:57:37;3.40;;;2.40;;
7843;SDS011;3967;48.702;9.326;2023-07-22T03:00:05;2.60;;;2.40;;
7843;SDS011;3967;48.702;9.326;2023-07-22T03:02:37;2.90;;;2.20;;
7843;SDS011;3967;48.702;9.326;2023-07-22T03:05:05;2.90;;;2.50;;
7843;SDS011;3967;48.702;9.326;2023-07-22T03:07:36;2.80;;;2.30;;
7843;SDS011;3967;48.702;9.326;2023-07-22T03:10:04;4.63;;;2.70;;
7843;SDS011;3967;48.702;9.326;2023-07-22T03:12:32;2.70;;;2.50;;
7843;SDS011;3967;48.702;9.326;2023-07-22T03:15:00;2.40;;;2.20;;
7843;SDS011;3967;48.702;9.326;2023-07-22T03:17:26;3.80;;;2.20;;
7843;SDS011;3967;48.702;9.326;2023-07-22T03:19:54;2.23;;;2.03;;
7843;SDS011;3967;48.702;9.326;2023-07-22T03:22:20;2.53;;;2.33;;
7843;SDS011;3967;48.702;9.326;2023-07-22T03:24:47;2.50;;;2.30;;
7843;SDS011;3967;48.702;9.326;2023-07-22T03:27:14;2.40;;;2.20;;
7843;SDS011;3967;48.702;9.326;2023-07-22T03:29:43;2.67;;;2.23;;
7843;SDS011;3967;48.702;9.326;2023-07-22T03:32:10;2.60;;;2.40;;
7843;SDS011;3967;48.702;9.326;2023-07-22T03:34:36;3.27;;;2.60;;
7843;SDS011;3967;48.702;9.326;2023-07-22T03:37:03;2.90;;;2.70;;
7843;SDS011;3967;48.702;9.326;2023-07-22T03:39:30;2.83;;;2.43;;
7843;SDS011;3967;48.702;9.326;2023-07-22T03:41:56;2.90;;;2.23;;
7843;SDS011;3967;48.702;9.326;2023-07-22T03:44:23;2.80;;;2.40;;
7843;SDS011;3967;48.702;9.326;2023-07-22T03:46:52;2.60;;;2.40;;
7843;SDS011;3967;48.702;9.326;2023-07-22T03:49:18;2.20;;;2.10;;
7843;SDS011;3967;48.702;9.326;2023-07-22T03:51:45;3.27;;;2.73;;
7843;SDS011;3967;48.702;9.326;2023-07-22T03:54:12;2.97;;;2.07;;
7843;SDS011;3967;48.702;9.326;2023-07-22T03:56:40;2.63;;;2.43;;
7843;SDS011;3967;48.702;9.326;2023-07-22T03:59:07;2.90;;;2.23;;
7843;SDS011;3967;48.702;9.326;2023-07-22T04:01:34;2.30;;;2.17;;
7843;SDS011;3967;48.702;9.326;2023-07-22T04:04:01;2.60;;;2.40;;
7843;SDS011;3967;48.702;9.326;2023-07-22T04:06:28;4.43;;;2.37;;
7843;SDS011;3967;48.702;9.326;2023-07-22T04:08:55;2.93;;;2.73;;
7843;SDS011;3967;48.702;9.326;2023-07-22T04:11:22;2.60;;;2.40;;
7843;SDS011;3967;48.702;9.326;2023-07-22T04:13:48;3.00;;;2.70;;
7843;SDS011;3967;48.702;9.326;2023-07-22T04:16:15;2.80;;;2.30;;
7843;SDS011;3967;48.702;9.326;2023-07-22T04:18:42;2.57;;;2.47;;
7843;SDS011;3967;48.702;9.326;2023-07-22T04:21:08;3.10;;;2.80;;
7843;SDS011;3967;48.702;9.326;2023-07-22T04:23:35;2.83;;;2.60;;
7843;SDS011;3967;48.702;9.326;2023-07-22T04:26:03;4.33;;;2.53;;
7843;SDS011;3967;48.702;9.326;2023-07-22T04:28:36;2.70;;;2.13;;
7843;SDS011;3967;48.702;9.326;2023-07-22T04:31:03;2.83;;;2.30;;
7843;SDS011;3967;48.702;9.326;2023-07-22T04:33:30;3.60;;;2.70;;
7843;SDS011;3967;48.702;9.326;2023-07-22T04:35:58;2.50;;;2.30;;
7843;SDS011;3967;48.702;9.326;2023-07-22T04:38:25;2.80;;;2.60;;
7843;SDS011;3967;48.702;9.326;2023-07-22T04:40:52;2.57;;;2.37;;
7843;SDS011;3967;48.702;9.326;2023-07-22T04:43:19;2.77;;;2.47;;
7843;SDS011;3967;48.702;9.326;2023-07-22T04:45:48;3.93;;;2.80;;
7843;SDS011;3967;48.702;9.326;2023-07-22T04:48:15;3.70;;;2.67;;
7843;SDS011;3967;48.702;9.326;2023-07-22T04:50:43;3.80;;;3.20;;
7843;SDS011;3967;48.702;9.326;2023-07-22T04:53:14;3.40;;;3.07;;
7843;SDS011;3967;48.702;9.326;2023-07-22T04:55:42;2.97;;;2.77;;
7843;SDS011;3967;48.702;9.326;2023-07-22T04:58:09;3.40;;;3.10;;
7843;SDS011;3967;48.702;9.326;2023-07-22T05:00:37;3.90;;;2.77;;
7843;SDS011;3967;48.702;9.326;2023-07-22T05:03:04;3.30;;;2.50;;
7843;SDS011;3967;48.702;9.326;2023-07-22T05:05:32;3.10;;;2.80;;
7843;SDS011;3967;48.702;9.326;2023-07-22T05:07:59;3.23;;;2.80;;
7843;SDS011;3967;48.702;9.326;2023-07-22T05:10:25;3.10;;;2.90;;
7843;SDS011;3967;48.702;9.326;2023-07-22T05:12:55;2.70;;;2.50;;
7843;SDS011;3967;48.702;9.326;2023-07-22T05:15:23;2.83;;;2.53;;
7843;SDS011;3967;48.702;9.326;2023-07-22T05:17:50;3.80;;;3.13;;
7843;SDS011;3967;48.702;9.326;2023-07-22T05:20:17;6.40;;;3.23;;
7843;SDS011;3967;48.702;9.326;2023-07-22T05:22:44;2.67;;;2.47;;
7843;SDS011;3967;48.702;9.326;2023-07-22T05:25:11;2.77;;;2.57;;
7843;SDS011;3967;48.702;9.326;2023-07-22T05:27:38;2.93;;;2.73;;
7843;SDS011;3967;48.702;9.326;2023-07-22T05:30:06;3.10;;;2.80;;
7843;SDS011;3967;48.702;9.326;2023-07-22T05:32:51;3.17;;;2.97;;
7843;SDS011;3967;48.702;9.326;2023-07-22T05:35:19;4.20;;;3.10;;
7843;SDS011;3967;48.702;9.326;2023-07-22T05:37:46;5.50;;;3.03;;
7843;SDS011;3967;48.702;9.326;2023-07-22T05:40:13;3.87;;;3.20;;
7843;SDS011;3967;48.702;9.326;2023-07-22T05:42:39;4.27;;;3.03;;
7843;SDS011;3967;48.702;9.326;2023-07-22T05:45:07;3.50;;;3.07;;
7843;SDS011;3967;48.702;9.326;2023-07-22T05:47:34;3.37;;;3.10;;
7843;SDS011;3967;48.702;9.326;2023-07-22T05:50:01;6.80;;;3.67;;
7843;SDS011;3967;48.702;9.326;2023-07-22T05:52:30;8.57;;;4.10;;
7843;SDS011;3967;48.702;9.326;2023-07-22T05:54:56;7.23;;;4.43;;
7843;SDS011;3967;48.702;9.326;2023-07-22T05:57:23;5.70;;;4.57;;
7843;SDS011;3967;48.702;9.326;2023-07-22T05:59:50;5.63;;;4.00;;
7843;SDS011;3967;48.702;9.326;2023-07-22T06:02:33;4.97;;;3.70;;
7843;SDS011;3967;48.702;9.326;2023-07-22T06:05:00;3.37;;;3.07;;
7843;SDS011;3967;48.702;9.326;2023-07-22T06:07:27;4.93;;;3.20;;
7843;SDS011;3967;48.702;9.326;2023-07-22T06:09:54;3.87;;;3.00;;
7843;SDS011;3967;48.702;9.326;2023-07-22T06:12:21;3.73;;;2.70;;
7843;SDS011;3967;48.702;9.326;2023-07-22T06:14:48;3.43;;;2.57;;
7843;SDS011;3967;48.702;9.326;2023-07-22T06:17:14;3.33;;;2.40;;
7843;SDS011;3967;48.702;9.326;2023-07-22T06:19:41;3.10;;;2.50;;
7843;SDS011;3967;48.702;9.326;2023-07-22T06:22:08;3.73;;;2.70;;
7843;SDS011;3967;48.702;9.326;2023-07-22T06:24:35;2.70;;;2.50;;
7843;SDS011;3967;48.702;9.326;2023-07-22T06:27:02;2.90;;;2.67;;
7843;SDS011;3967;48.702;9.326;2023-07-22T06:29:29;3.90;;;2.97;;
7843;SDS011;3967;48.702;9.326;2023-07-22T06:31:55;3.00;;;2.70;;
7843;SDS011;3967;48.702;9.326;2023-07-22T06:34:22;2.80;;;2.30;;
7843;SDS011;3967;48.702;9.326;2023-07-22T06:36:49;4.10;;;2.40;;
7843;SDS011;3967;48.702;9.326;2023-07-22T06:39:16;3.10;;;2.77;;
7843;SDS011;3967;48.702;9.326;2023-07-22T06:41:42;2.00;;;1.90;;
7843;SDS011;3967;48.702;9.326;2023-07-22T06:44:09;4.37;;;2.40;;
7843;SDS011;3967;48.702;9.326;2023-07-22T06:46:36;2.60;;;2.10;;
7843;SDS011;3967;48.702;9.326;2023-07-22T06:49:03;2.63;;;2.43;;
7843;SDS011;3967;48.702;9.326;2023-07-22T06:51:29;2.63;;;2.13;;
7843;SDS011;3967;48.702;9.326;2023-07-22T06:53:56;2.13;;;2.03;;
7843;SDS011;3967;48.702;9.326;2023-07-22T06:56:23;6.33;;;2.37;;
7843;SDS011;3967;48.702;9.326;2023-07-22T06:58:50;2.90;;;2.30;;
7843;SDS011;3967;48.702;9.326;2023-07-22T07:01:17;2.67;;;2.47;;
7843;SDS011;3967;48.702;9.326;2023-07-22T07:03:44;3.70;;;2.37;;
7843;SDS011;3967;48.702;9.326;2023-07-22T07:06:11;1.87;;;1.63;;
7843;SDS011;3967;48.702;9.326;2023-07-22T07:08:38;3.93;;;1.67;;
7843;SDS011;3967;48.702;9.326;2023-07-22T07:11:05;2.60;;;1.80;;
7843;SDS011;3967;48.702;9.326;2023-07-22T07:13:33;2.37;;;2.10;;
7843;SDS011;3967;48.702;9.326;2023-07-22T07:16:19;3.37;;;1.90;;
7843;SDS011;3967;48.702;9.326;2023-07-22T07:18:51;2.70;;;2.33;;
7843;SDS011;3967;48.702;9.326;2023-07-22T07:21:18;2.50;;;2.30;;
7843;SDS011;3967;48.702;9.326;2023-07-22T07:23:46;2.57;;;2.13;;
7843;SDS011;3967;48.702;9.326;2023-07-22T07:26:13;2.80;;;2.00;;
7843;SDS011;3967;48.702;9.326;2023-07-22T07:28:40;2.67;;;2.10;;
7843;SDS011;3967;48.702;9.326;2023-07-22T07:31:07;2.63;;;2.13;;
7843;SDS011;3967;48.702;9.326;2023-07-22T07:33:34;2.30;;;1.60;;
7843;SDS011;3967;48.702;9.326;2023-07-22T07:36:01;2.87;;;1.60;;
7843;SDS011;3967;48.702;9.326;2023-07-22T07:38:29;2.20;;;1.60;;
7843;SDS011;3967;48.702;9.326;2023-07-22T07:40:56;2.17;;;1.67;;
7843;SDS011;3967;48.702;9.326;2023-07-22T07:43:25;2.83;;;1.70;;
7843;SDS011;3967;48.702;9.326;2023-07-22T07:48:45;2.33;;;1.60;;
7843;SDS011;3967;48.702;9.326;2023-07-22T07:51:17;3.07;;;1.43;;
7843;SDS011;3967;48.702;9.326;2023-07-22T07:53:45;2.60;;;1.50;;
7843;SDS011;3967;48.702;9.326;2023-07-22T07:56:16;1.70;;;1.60;;
7843;SDS011;3967;48.702;9.326;2023-07-22T07:58:44;1.67;;;1.50;;
7843;SDS011;3967;48.702;9.326;2023-07-22T08:01:12;2.30;;;1.60;;
7843;SDS011;3967;48.702;9.326;2023-07-22T08:03:40;2.80;;;1.63;;
7843;SDS011;3967;48.702;9.326;2023-07-22T08:06:08;1.73;;;1.60;;
7843;SDS011;3967;48.702;9.326;2023-07-22T08:08:36;2.03;;;1.53;;
7843;SDS011;3967;48.702;9.326;2023-07-22T08:11:05;1.63;;;1.20;;
7843;SDS011;3967;48.702;9.326;2023-07-22T08:13:37;1.70;;;1.60;;
7843;SDS011;3967;48.702;9.326;2023-07-22T08:16:04;1.80;;;1.17;;
7843;SDS011;3967;48.702;9.326;2023-07-22T08:18:32;1.73;;;1.33;;
7843;SDS011;3967;48.702;9.326;2023-07-22T08:21:00;2.17;;;1.13;;
7843;SDS011;3967;48.702;9.326;2023-07-22T08:23:29;1.40;;;1.30;;
7843;SDS011;3967;48.702;9.326;2023-07-22T08:25:56;1.77;;;1.10;;
7843;SDS011;3967;48.702;9.326;2023-07-22T08:28:23;2.50;;;1.10;;
7843;SDS011;3967;48.702;9.326;2023-07-22T08:30:50;1.47;;;0.97;;
7843;SDS011;3967;48.702;9.326;2023-07-22T08:33:22;0.90;;;0.90;;
7843;SDS011;3967;48.702;9.326;2023-07-22T08:36:04;6.23;;;1.13;;
7843;SDS011;3967;48.702;9.326;2023-07-22T08:38:31;0.90;;;0.90;;
7843;SDS011;3967;48.702;9.326;2023-07-22T08:40:58;1.53;;;1.20;;
7843;SDS011;3967;48.702;9.326;2023-07-22T08:43:30;1.20;;;1.10;;
7843;SDS011;3967;48.702;9.326;2023-07-22T08:46:01;2.50;;;1.00;;
7843;SDS011;3967;48.702;9.326;2023-07-22T08:48:29;1.20;;;1.10;;
7843;SDS011;3967;48.702;9.326;2023-07-22T08:51:10;1.95;;;1.13;;
7843;SDS011;3967;48.702;9.326;2023-07-22T08:53:43;0.90;;;0.90;;
7843;SDS011;3967;48.702;9.326;2023-07-22T08:56:18;1.95;;;0.98;;
7843;SDS011;3967;48.702;9.326;2023-07-22T08:58:45;1.80;;;0.90;;
7843;SDS011;3967;48.702;9.326;2023-07-22T09:01:13;1.70;;;1.10;;
7843;SDS011;3967;48.702;9.326;2023-07-22T09:03:40;1.20;;;1.10;;
7843;SDS011;3967;48.702;9.326;2023-07-22T09:06:08;1.08;;;1.02;;
7843;SDS011;3967;48.702;9.326;2023-07-22T09:08:35;2.78;;;1.20;;
7843;SDS011;3967;48.702;9.326;2023-07-22T09:11:02;1.00;;;1.00;;
7843;SDS011;3967;48.702;9.326;2023-07-22T09:13:28;1.20;;;1.10;;
7843;SDS011;3967;48.702;9.326;2023-07-22T09:15:57;1.10;;;1.08;;
7843;SDS011;3967;48.702;9.326;2023-07-22T09:18:25;1.30;;;0.88;;
7843;SDS011;3967;48.702;9.326;2023-07-22T09:21:03;1.15;;;1.00;;
7843;SDS011;3967;48.702;9.326;2023-07-22T09:23:36;1.10;;;1.00;;
7843;SDS011;3967;48.702;9.326;2023-07-22T09:26:07;1.00;;;1.00;;
7843;SDS011;3967;48.702;9.326;2023-07-22T09:31:22;5.68;;;1.08;;
7843;SDS011;3967;48.702;9.326;2023-07-22T09:33:51;1.75;;;0.80;;
7843;SDS011;3967;48.702;9.326;2023-07-22T09:36:20;1.30;;;0.98;;
7843;SDS011;3967;48.702;9.326;2023-07-22T09:38:58;1.58;;;1.05;;
7843;SDS011;3967;48.702;9.326;2023-07-22T09:41:29;0.80;;;0.80;;
7843;SDS011;3967;48.702;9.326;2023-07-22T09:43:57;1.15;;;1.05;;
7843;SDS011;3967;48.702;9.326;2023-07-22T09:46:31;2.20;;;1.10;;
7843;SDS011;3967;48.702;9.326;2023-07-22T09:49:02;1.83;;;1.08;;
7843;SDS011;3967;48.702;9.326;2023-07-22T09:51:37;1.77;;;1.00;;
7843;SDS011;3967;48.702;9.326;2023-07-22T09:54:26;1.10;;;1.00;;
7843;SDS011;3967;48.702;9.326;2023-07-22T09:56:55;1.45;;;1.20;;
7843;SDS011;3967;48.702;9.326;2023-07-22T09:59:22;2.40;;;1.00;;
7843;SDS011;3967;48.702;9.326;2023-07-22T10:01:50;2.05;;;1.10;;
7843;SDS011;3967;48.702;9.326;2023-07-22T10:04:18;0.90;;;0.90;;
7843;SDS011;3967;48.702;9.326;2023-07-22T10:06:47;2.20;;;1.40;;
7843;SDS011;3967;48.702;9.326;2023-07-22T10:09:15;1.73;;;0.98;;
7843;SDS011;3967;48.702;9.326;2023-07-22T10:11:43;2.05;;;1.10;;
7843;SDS011;3967;48.702;9.326;2023-07-22T10:14:10;1.08;;;1.02;;
7843;SDS011;3967;48.702;9.326;2023-07-22T10:16:40;1.48;;;0.90;;
7843;SDS011;3967;48.702;9.326;2023-07-22T10:19:07;1.90;;;1.00;;
7843;SDS011;3967;48.702;9.326;2023-07-22T10:21:36;2.60;;;1.00;;
7843;SDS011;3967;48.702;9.326;2023-07-22T10:24:04;1.75;;;1.00;;
7843;SDS011;3967;48.702;9.326;2023-07-22T10:26:32;1.00;;;0.90;;
7843;SDS011;3967;48.702;9.326;2023-07-22T10:29:12;1.13;;;0.90;;
7843;SDS011;3967;48.702;9.326;2023-07-22T10:31:40;1.55;;;1.00;;
7843;SDS011;3967;48.702;9.326;2023-07-22T10:34:07;1.05;;;1.00;;
7843;SDS011;3967;48.702;9.326;2023-07-22T10:36:34;1.27;;;0.93;;
7843;SDS011;3967;48.702;9.326;2023-07-22T10:39:02;0.93;;;0.85;;
7843;SDS011;3967;48.702;9.326;2023-07-22T10:41:31;0.80;;;0.80;;
7843;SDS011;3967;48.702;9.326;2023-07-22T10:43:59;2.13;;;0.80;;
7843;SDS011;3967;48.702;9.326;2023-07-22T10:46:33;2.42;;;0.90;;
7843;SDS011;3967;48.702;9.326;2023-07-22T10:51:38;0.80;;;0.80;;
7843;SDS011;3967;48.702;9.326;2023-07-22T10:54:15;1.33;;;1.00;;
7843;SDS011;3967;48.702;9.326;2023-07-22T10:56:56;1.20;;;0.90;;
7843;SDS011;3967;48.702;9.326;2023-07-22T10:59:26;1.00;;;0.90;;
7843;SDS011;3967;48.702;9.326;2023-07-22T11:01:53;1.75;;;1.00;;
7843;SDS011;3967;48.702;9.326;2023-07-22T11:04:23;0.80;;;0.80;;
7843;SDS011;3967;48.702;9.326;2023-07-22T11:07:05;1.13;;;0.93;;
7843;SDS011;3967;48.702;9.326;2023-07-22T11:09:35;1.42;;;1.00;;
7843;SDS011;3967;48.702;9.326;2023-07-22T11:12:08;2.45;;;2.20;;
7843;SDS011;3967;48.702;9.326;2023-07-22T11:14:41;2.22;;;2.10;;
7843;SDS011;3967;48.702;9.326;2023-07-22T11:17:11;2.90;;;1.63;;
7843;SDS011;3967;48.702;9.326;2023-07-22T11:19:38;4.32;;;2.10;;
7843;SDS011;3967;48.702;9.326;2023-07-22T11:22:05;1.75;;;1.45;;
7843;SDS011;3967;48.702;9.326;2023-07-22T11:24:33;1.20;;;1.10;;
7843;SDS011;3967;48.702;9.326;2023-07-22T11:27:04;1.00;;;0.85;;
7843;SDS011;3967;48.702;9.326;2023-07-22T11:29:32;1.17;;;1.05;;
7843;SDS011;3967;48.702;9.326;2023-07-22T11:31:59;1.10;;;1.00;;
7843;SDS011;3967;48.702;9.326;2023-07-22T11:34:26;2.53;;;1.40;;
7843;SDS011;3967;48.702;9.326;2023-07-22T11:36:53;2.17;;;1.40;;
7843;SDS011;3967;48.702;9.326;2023-07-22T11:39:21;1.95;;;1.02;;
7843;SDS011;3967;48.702;9.326;2023-07-22T11:41:52;1.38;;;1.27;;
7843;SDS011;3967;48.702;9.326;2023-07-22T11:44:20;1.30;;;1.20;;
7843;SDS011;3967;48.702;9.326;2023-07-22T11:46:58;1.95;;;1.48;;
7843;SDS011;3967;48.702;9.326;2023-07-22T11:49:40;1.58;;;1.00;;
7843;SDS011;3967;48.702;9.326;2023-07-22T11:52:09;1.13;;;0.95;;
7843;SDS011;3967;48.702;9.326;2023-07-22T11:54:40;1.30;;;1.00;;
7843;SDS011;3967;48.702;9.326;2023-07-22T11:57:09;1.15;;;1.05;;
7843;SDS011;3967;48.702;9.326;2023-07-22T11:59:37;1.52;;;1.42;;
7843;SDS011;3967;48.702;9.326;2023-07-22T12:02:05;1.20;;;1.10;;
7843;SDS011;3967;48.702;9.326;2023-07-22T12:04:33;1.40;;;1.30;;
7843;SDS011;3967;48.702;9.326;2023-07-22T12:07:01;1.58;;;1.13;;
7843;SDS011;3967;48.702;9.326;2023-07-22T12:09:30;2.25;;;1.30;;
7843;SDS011;3967;48.702;9.326;2023-07-22T12:11:58;1.20;;;1.10;;
7843;SDS011;3967;48.702;9.326;2023-07-22T12:14:32;1.00;;;1.00;;
7843;SDS011;3967;48.702;9.326;2023-07-22T12:17:07;2.35;;;1.30;;
7843;SDS011;3967;48.702;9.326;2023-07-22T12:19:35;2.20;;;1.17;;
7843;SDS011;3967;48.702;9.326;2023-07-22T12:22:03;1.10;;;1.05;;
7843;SDS011;3967;48.702;9.326;2023-07-22T12:24:30;0.90;;;0.90;;
7843;SDS011;3967;48.702;9.326;2023-07-22T12:26:57;1.30;;;1.20;;
7843;SDS011;3967;48.702;9.326;2023-07-22T12:29:23;4.10;;;1.38;;
7843;SDS011;3967;48.702;9.326;2023-07-22T12:31:52;2.25;;;1.50;;
7843;SDS011;3967;48.702;9.326;2023-07-22T12:34:18;1.08;;;1.08;;
7843;SDS011;3967;48.702;9.326;2023-07-22T12:36:45;2.75;;;1.65;;
7843;SDS011;3967;48.702;9.326;2023-07-22T12:39:12;1.42;;;1.00;;
7843;SDS011;3967;48.702;9.326;2023-07-22T12:41:38;2.10;;;1.42;;
7843;SDS011;3967;48.702;9.326;2023-07-22T12:44:05;1.20;;;1.15;;
7843;SDS011;3967;48.702;9.326;2023-07-22T12:46:32;1.20;;;1.10;;
7843;SDS011;3967;48.702;9.326;2023-07-22T12:48:59;1.20;;;1.10;;
7843;SDS011;3967;48.702;9.326;2023-07-22T12:51:25;2.75;;;1.20;;
7843;SDS011;3967;48.702;9.326;2023-07-22T12:53:53;1.10;;;1.10;;
7843;SDS011;3967;48.702;9.326;2023-07-22T12:56:19;2.85;;;1.38;;
7843;SDS011;3967;48.702;9.326;2023-07-22T12:58:46;1.45;;;1.20;;
7843;SDS011;3967;48.702;9.326;2023-07-22T13:01:13;2.38;;;1.38;;
7843;SDS011;3967;48.702;9.326;2023-07-22T13:03:40;3.75;;;1.30;;
7843;SDS011;3967;48.702;9.326;2023-07-22T13:06:06;1.70;;;1.15;;
7843;SDS011;3967;48.702;9.326;2023-07-22T13:08:33;1.25;;;1.15;;
7843;SDS011;3967;48.702;9.326;2023-07-22T13:11:00;1.92;;;1.35;;
7843;SDS011;3967;48.702;9.326;2023-07-22T13:13:27;1.23;;;1.05;;
7843;SDS011;3967;48.702;9.326;2023-07-22T13:15:53;1.40;;;1.30;;
7843;SDS011;3967;48.702;9.326;2023-07-22T13:18:21;1.40;;;1.30;;
7843;SDS011;3967;48.702;9.326;2023-07-22T13:20:48;2.65;;;1.38;;
7843;SDS011;3967;48.702;9.326;2023-07-22T13:23:14;2.45;;;1.20;;
7843;SDS011;3967;48.702;9.326;2023-07-22T13:25:41;1.80;;;1.17;;
7843;SDS011;3967;48.702;9.326;2023-07-22T13:28:08;1.58;;;1.10;;
7843;SDS011;3967;48.702;9.326;2023-07-22T13:30:35;1.30;;;1.20;;
7843;SDS011;3967;48.702;9.326;2023-07-22T13:33:02;1.30;;;1.20;;
7843;SDS011;3967;48.702;9.326;2023-07-22T13:35:29;1.45;;;1.35;;
7843;SDS011;3967;48.702;9.326;2023-07-22T13:37:56;2.03;;;1.15;;
7843;SDS011;3967;48.702;9.326;2023-07-22T13:40:23;1.50;;;1.40;;
7843;SDS011;3967;48.702;9.326;2023-07-22T13:42:50;3.08;;;1.60;;
7843;SDS011;3967;48.702;9.326;2023-07-22T13:45:17;2.88;;;1.73;;
7843;SDS011;3967;48.702;9.326;2023-07-22T13:47:44;2.47;;;1.52;;
7843;SDS011;3967;48.702;9.326;2023-07-22T13:50:10;1.77;;;1.63;;
7843;SDS011;3967;48.702;9.326;2023-07-22T13:52:37;1.73;;;1.63;;
7843;SDS011;3967;48.702;9.326;2023-07-22T13:55:04;4.40;;;1.92;;
7843;SDS011;3967;48.702;9.326;2023-07-22T13:57:31;2.17;;;1.58;;
7843;SDS011;3967;48.702;9.326;2023-07-22T13:59:58;1.80;;;1.70;;
7843;SDS011;3967;48.702;9.326;2023-07-22T14:02:25;3.38;;;1.55;;
7843;SDS011;3967;48.702;9.326;2023-07-22T14:04:52;3.30;;;1.92;;
7843;SDS011;3967;48.702;9.326;2023-07-22T14:07:19;4.00;;;1.60;;
7843;SDS011;3967;48.702;9.326;2023-07-22T14:09:46;1.75;;;1.65;;
7843;SDS011;3967;48.702;9.326;2023-07-22T14:12:12;1.92;;;1.70;;
7843;SDS011;3967;48.702;9.326;2023-07-22T14:14:39;2.05;;;1.60;;
7843;SDS011;3967;48.702;9.326;2023-07-22T14:17:06;2.80;;;1.80;;
7843;SDS011;3967;48.702;9.326;2023-07-22T14:19:33;1.90;;;1.80;;
7843;SDS011;3967;48.702;9.326;2023-07-22T14:22:00;1.90;;;1.70;;
7843;SDS011;3967;48.702;9.326;2023-07-22T14:24:27;1.92;;;1.52;;
7843;SDS011;3967;48.702;9.326;2023-07-22T14:26:54;2.25;;;1.90;;
7843;SDS011;3967;48.702;9.326;2023-07-22T14:29:21;2.28;;;2.08;;
7843;SDS011;3967;48.702;9.326;2023-07-22T14:31:47;2.70;;;1.83;;
7843;SDS011;3967;48.702;9.326;2023-07-22T14:34:14;2.97;;;2.08;;
7843;SDS011;3967;48.702;9.326;2023-07-22T14:36:41;2.88;;;1.88;;
7843;SDS011;3967;48.702;9.326;2023-07-22T14:39:11;2.72;;;1.95;;
7843;SDS011;3967;48.702;9.326;2023-07-22T14:41:40;2.00;;;1.90;;
7843;SDS011;3967;48.702;9.326;2023-07-22T14:44:08;2.08;;;1.88;;
7843;SDS011;3967;48.702;9.326;2023-07-22T14:46:35;3.63;;;1.95;;
7843;SDS011;3967;48.702;9.326;2023-07-22T14:49:02;2.40;;;2.20;;
7843;SDS011;3967;48.702;9.326;2023-07-22T14:51:30;3.00;;;1.98;;
7843;SDS011;3967;48.702;9.326;2023-07-22T14:53:56;2.38;;;1.80;;
7843;SDS011;3967;48.702;9.326;2023-07-22T14:56:24;2.85;;;2.10;;
7843;SDS011;3967;48.702;9.326;2023-07-22T14:58:50;2.25;;;2.05;;
7843;SDS011;3967;48.702;9.326;2023-07-22T15:01:17;1.95;;;1.73;;
7843;SDS011;3967;48.702;9.326;2023-07-22T15:03:44;2.10;;;2.00;;
7843;SDS011;3967;48.702;9.326;2023-07-22T15:06:11;3.78;;;2.10;;
7843;SDS011;3967;48.702;9.326;2023-07-22T15:08:37;2.08;;;1.83;;
7843;SDS011;3967;48.702;9.326;2023-07-22T15:11:04;2.17;;;1.98;;
7843;SDS011;3967;48.702;9.326;2023-07-22T15:13:31;2.08;;;1.80;;
7843;SDS011;3967;48.702;9.326;2023-07-22T15:15:58;1.80;;;1.70;;
7843;SDS011;3967;48.702;9.326;2023-07-22T15:18:24;1.80;;;1.70;;
7843;SDS011;3967;48.702;9.326;2023-07-22T15:20:51;2.10;;;1.90;;
7843;SDS011;3967;48.702;9.326;2023-07-22T15:23:19;2.47;;;2.10;;
7843;SDS011;3967;48.702;9.326;2023-07-22T15:25:49;2.35;;;2.15;;
7843;SDS011;3967;48.702;9.326;2023-07-22T15:28:16;2.08;;;1.88;;